Terminal Aerodrome Forecast
Issued by NWS St Louis, MO

Home | Current Version | Previous Version | Text Only | Print | Product List | Glossary On
Versions: 1 2 3 4 5 6 7 8 9 10 11 12 13 14 15 16 17 18 19 20
544
FTUS43 KLSX 072326
TAFCOU
TAF
KCOU 072326Z 0800/0824 28011KT P6SM VCSH BKN100
     FM080200 29010KT P6SM BKN100
     FM080900 30016G27KT P6SM -SHSN BKN030=

USA.gov is the U.S. government's official web portal to all federal, state and local government web resources and services.